Time;durP1;ratioP1;P1;durP2;ratioP2;P2;SDS_P1;SDS_P2;PMS_P1;PMS_P2;Temp;Humidity;BMP_temperature;BMP_pressure;BME280_temperature;BME280_humidity;BME280_pressure;Samples;Min_cycle;Max_cycle;Signal;HPM_P1;HPM_P2
2022/08/12 00:43:16;;;;;;;7.53;5.07;;;21.80;14.90;;;;;;4973946;28;20467;-75
2022/08/12 00:48:30;;;;;;;11.07;5.70;;;21.80;14.90;;;;;;4973629;28;20749;-73
2022/08/12 00:50:59;;;;;;;8.57;6.10;;;21.80;15.10;;;;;;4973548;28;20748;-75
2022/08/12 00:53:27;;;;;;;14.38;6.85;;;21.70;15.30;;;;;;4973794;28;20412;-74
2022/08/12 00:55:55;;;;;;;9.63;5.60;;;21.50;15.00;;;;;;4973769;28;20420;-74
2022/08/12 00:58:24;;;;;;;8.80;5.30;;;21.60;15.20;;;;;;4972252;28;20440;-74
2022/08/12 01:00:50;;;;;;;8.57;5.35;;;21.70;15.20;;;;;;4973747;28;20486;-73
2022/08/12 01:03:19;;;;;;;11.18;5.80;;;21.60;14.60;;;;;;4972143;28;20419;-73
2022/08/12 01:11:31;;;;;;;8.18;5.85;;;21.00;16.20;;;;;;4973709;28;20754;-73
2022/08/12 01:13:59;;;;;;;8.90;5.90;;;21.10;16.20;;;;;;4973518;28;20399;-73
2022/08/12 01:16:26;;;;;;;8.93;6.07;;;21.40;15.70;;;;;;4973619;28;20593;-74
2022/08/12 01:18:54;;;;;;;7.80;5.90;;;21.50;15.60;;;;;;4973993;28;20381;-73
2022/08/12 01:21:57;;;;;;;8.70;6.05;;;21.40;15.80;;;;;;4984684;28;20468;-73
2022/08/12 01:24:35;;;;;;;7.17;5.63;;;21.40;15.90;;;;;;4993226;28;20384;-73
2022/08/12 01:27:02;;;;;;;9.93;5.63;;;21.40;15.90;;;;;;4984355;28;20442;-74
2022/08/12 01:29:33;;;;;;;16.90;6.85;;;21.40;16.10;;;;;;4974392;28;20802;-75
2022/08/12 01:32:04;;;;;;;10.13;5.97;;;21.40;16.20;;;;;;4972343;28;20384;-74
2022/08/12 01:34:32;;;;;;;8.27;6.17;;;21.30;16.40;;;;;;4975299;28;20408;-75
2022/08/12 01:37:01;;;;;;;10.45;6.03;;;21.20;16.60;;;;;;4973668;28;20447;-77
2022/08/12 01:39:32;;;;;;;14.15;6.30;;;21.00;17.00;;;;;;4973727;28;20410;-75
2022/08/12 01:42:03;;;;;;;11.63;7.90;;;21.10;17.40;;;;;;4973528;28;20411;-74
2022/08/12 01:44:30;;;;;;;11.80;7.60;;;21.00;17.30;;;;;;4973095;28;20870;-74
2022/08/12 01:47:04;;;;;;;8.48;6.70;;;20.80;18.00;;;;;;4973297;28;20423;-74
2022/08/12 01:49:39;;;;;;;11.18;6.70;;;20.70;18.20;;;;;;4972061;28;20427;-74
2022/08/12 01:52:06;;;;;;;6.90;6.13;;;20.50;18.70;;;;;;4972751;28;20451;-73
2022/08/12 01:54:38;;;;;;;9.35;6.20;;;20.30;19.20;;;;;;4973106;28;20777;-74
2022/08/12 01:57:09;;;;;;;7.15;5.90;;;20.10;19.40;;;;;;4973137;28;20452;-74
2022/08/12 01:59:49;;;;;;;10.75;7.00;;;20.00;19.80;;;;;;4973853;28;20380;-74
2022/08/12 02:02:23;;;;;;;11.13;6.30;;;19.80;20.20;;;;;;4973885;28;20399;-74
2022/08/12 02:11:21;;;;;;;10.55;6.40;;;19.80;21.20;;;;;;5030295;28;20425;-75
2022/08/12 02:14:40;;;;;;;8.93;6.25;;;19.80;21.50;;;;;;5030911;28;20390;-76
2022/08/12 02:17:32;;;;;;;12.05;7.20;;;19.80;21.50;;;;;;4971438;28;20841;-75
2022/08/12 02:20:16;;;;;;;10.05;6.50;;;20.00;20.90;;;;;;4990747;28;20751;-76
2022/08/12 02:22:43;;;;;;;7.60;6.67;;;20.00;20.70;;;;;;5021545;28;20472;-76
2022/08/12 02:25:09;;;;;;;9.45;6.90;;;20.00;21.00;;;;;;5031061;28;20433;-77
2022/08/12 02:27:41;;;;;;;10.57;6.82;;;19.80;21.50;;;;;;5031583;28;20781;-75
2022/08/12 02:30:10;;;;;;;16.65;7.22;;;19.90;22.10;;;;;;5031140;28;20883;-77
2022/08/12 02:32:40;;;;;;;10.30;7.10;;;19.70;22.70;;;;;;5030753;28;20402;-77
2022/08/12 02:35:10;;;;;;;7.38;6.45;;;19.50;23.40;;;;;;5030961;28;20399;-77
2022/08/12 02:37:41;;;;;;;10.57;7.30;;;19.50;23.70;;;;;;5031184;28;20932;-76
2022/08/12 02:40:09;;;;;;;11.77;6.40;;;19.60;23.60;;;;;;5030944;28;20382;-76
2022/08/12 02:42:35;;;;;;;13.85;7.57;;;19.50;24.30;;;;;;5030005;28;20478;-74
2022/08/12 02:45:06;;;;;;;14.23;7.43;;;19.60;24.10;;;;;;5033691;28;20395;-75
2022/08/12 02:47:39;;;;;;;12.07;7.20;;;19.50;24.40;;;;;;5032547;28;20402;-77
2022/08/12 02:50:06;;;;;;;10.10;6.90;;;19.30;25.10;;;;;;5033755;28;20386;-75
2022/08/12 02:52:33;;;;;;;10.43;7.50;;;19.20;25.70;;;;;;5032593;28;20438;-75
2022/08/12 02:55:06;;;;;;;12.35;7.00;;;19.20;26.00;;;;;;5034059;28;20395;-75
2022/08/12 02:57:33;;;;;;;11.35;6.93;;;19.20;26.10;;;;;;5034517;28;20391;-78
2022/08/12 03:00:02;;;;;;;15.37;7.90;;;19.20;26.50;;;;;;5032947;28;20387;-76
2022/08/12 03:02:30;;;;;;;11.32;7.68;;;19.20;26.50;;;;;;5033864;28;20440;-76
2022/08/12 03:04:57;;;;;;;10.10;7.25;;;19.20;26.80;;;;;;5033313;28;20387;-77
2022/08/12 03:07:23;;;;;;;10.60;6.97;;;19.30;26.90;;;;;;5033703;28;20950;-77
2022/08/12 03:10:11;;;;;;;12.93;7.43;;;19.20;27.10;;;;;;5033601;28;20430;-77
2022/08/12 03:12:43;;;;;;;11.50;7.10;;;19.20;27.40;;;;;;5032954;28;20775;-77
2022/08/12 03:15:14;;;;;;;9.20;6.78;;;19.20;27.20;;;;;;5034017;28;20418;-75
2022/08/12 03:17:43;;;;;;;11.55;7.47;;;19.20;27.40;;;;;;5040472;28;20479;-74
2022/08/12 03:20:15;;;;;;;8.25;6.70;;;19.30;26.50;;;;;;5041581;28;20403;-74
2022/08/12 03:22:42;;;;;;;13.32;7.63;;;19.30;26.30;;;;;;5043838;28;20410;-75
2022/08/12 03:25:16;;;;;;;8.35;6.65;;;19.10;26.80;;;;;;5045160;28;20446;-74
2022/08/12 03:27:48;;;;;;;13.90;7.63;;;18.70;28.20;;;;;;5042261;28;20415;-76
2022/08/12 03:30:16;;;;;;;10.93;7.03;;;18.60;29.60;;;;;;5041670;28;20379;-75
2022/08/12 03:32:46;;;;;;;9.57;7.35;;;18.50;30.40;;;;;;5034218;28;20431;-75
2022/08/12 03:35:17;;;;;;;8.38;6.50;;;18.40;31.00;;;;;;5033150;28;20403;-76
2022/08/12 03:37:44;;;;;;;9.70;7.30;;;18.40;31.60;;;;;;5033033;28;20387;-75
2022/08/12 03:41:32;;;;;;;9.15;7.45;;;18.60;31.80;;;;;;5033218;28;20383;-75
2022/08/12 04:02:16;;;;;;;11.68;7.70;;;18.30;32.50;;;;;;5032696;28;20808;-77
2022/08/12 04:04:44;;;;;;;11.23;6.70;;;18.20;32.20;;;;;;5032880;28;20465;-76
2022/08/12 04:07:10;;;;;;;16.20;8.47;;;18.00;32.30;;;;;;5031234;28;20819;-77
2022/08/12 04:09:41;;;;;;;11.77;7.60;;;18.00;32.90;;;;;;5032335;28;20403;-75
2022/08/12 04:14:55;;;;;;;9.38;7.43;;;18.00;33.40;;;;;;5032650;28;20514;-75
2022/08/12 04:17:22;;;;;;;12.45;7.28;;;18.00;32.60;;;;;;5032557;28;20425;-75
2022/08/12 04:19:48;;;;;;;16.02;8.10;;;17.90;32.70;;;;;;5032465;28;20387;-76
2022/08/12 04:22:15;;;;;;;10.03;7.40;;;18.00;32.00;;;;;;5032115;28;20371;-75
2022/08/12 04:24:41;;;;;;;14.48;7.25;;;18.00;31.70;;;;;;5035727;28;20478;-76
2022/08/12 04:27:09;;;;;;;10.95;7.43;;;17.90;32.20;;;;;;5037792;28;20510;-74
2022/08/12 04:29:36;;;;;;;12.00;8.00;;;17.90;32.80;;;;;;5039380;28;20401;-76
2022/08/12 04:32:02;;;;;;;13.00;7.53;;;18.10;33.40;;;;;;5030691;28;20473;-75
2022/08/12 04:34:28;;;;;;;14.38;8.43;;;18.00;33.40;;;;;;5032310;28;20441;-76
2022/08/12 04:36:53;;;;;;;13.10;8.35;;;18.00;33.60;;;;;;5047847;28;20391;-76
2022/08/12 04:39:21;;;;;;;13.48;7.72;;;18.10;33.70;;;;;;5032648;28;20424;-78
2022/08/12 04:41:48;;;;;;;11.97;7.87;;;18.40;32.70;;;;;;5032621;28;20383;-76
2022/08/12 04:44:14;;;;;;;11.75;7.40;;;18.40;32.30;;;;;;5032455;28;20383;-75
2022/08/12 04:46:40;;;;;;;11.50;7.15;;;18.40;32.50;;;;;;5033431;28;20387;-76
2022/08/12 04:49:05;;;;;;;14.57;8.50;;;18.30;32.70;;;;;;5032664;28;20383;-74
2022/08/12 04:51:32;;;;;;;10.68;7.60;;;18.30;32.00;;;;;;5032717;28;20752;-75
2022/08/12 04:54:00;;;;;;;10.68;8.23;;;18.30;32.10;;;;;;5032839;28;20462;-77
2022/08/12 04:56:26;;;;;;;13.35;8.40;;;18.30;32.30;;;;;;5031656;28;20391;-76
2022/08/12 04:58:52;;;;;;;11.32;8.00;;;18.40;31.80;;;;;;5032200;28;20799;-76
2022/08/12 05:01:18;;;;;;;13.17;8.90;;;18.50;31.70;;;;;;5031767;28;20371;-76
2022/08/12 05:03:44;;;;;;;15.55;10.40;;;18.60;30.70;;;;;;5031557;28;20391;-77
2022/08/12 05:06:10;;;;;;;16.67;9.63;;;18.70;31.10;;;;;;5036633;28;20466;-76
2022/08/12 05:08:35;;;;;;;19.75;9.10;;;18.80;30.90;;;;;;5033479;28;20414;-76
2022/08/12 05:11:02;;;;;;;17.47;8.53;;;19.10;29.10;;;;;;5038019;28;20395;-77
2022/08/12 05:13:35;;;;;;;14.25;9.18;;;19.10;29.00;;;;;;5040488;28;20391;-76
2022/08/12 05:16:01;;;;;;;18.90;8.80;;;19.10;28.50;;;;;;5030730;28;20402;-76
2022/08/12 05:18:27;;;;;;;15.82;10.27;;;19.30;28.40;;;;;;5032302;28;20485;-76
2022/08/12 05:20:53;;;;;;;15.80;9.60;;;19.40;28.10;;;;;;5030611;28;20918;-76
2022/08/12 05:23:21;;;;;;;18.83;9.10;;;19.50;27.70;;;;;;5030456;28;20390;-76
2022/08/12 05:25:48;;;;;;;14.70;9.13;;;19.60;27.30;;;;;;5030342;28;20507;-74
2022/08/12 05:28:15;;;;;;;20.67;10.10;;;19.70;26.90;;;;;;5030367;28;20387;-76
2022/08/12 05:30:42;;;;;;;17.08;9.00;;;19.80;26.20;;;;;;5031099;28;20383;-77
2022/08/12 05:33:08;;;;;;;15.23;9.10;;;19.80;25.80;;;;;;5030848;28;20383;-75
2022/08/12 05:35:40;;;;;;;16.77;9.73;;;19.90;26.00;;;;;;5031516;28;20410;-75
2022/08/12 05:40:54;;;;;;;15.40;8.60;;;20.00;25.00;;;;;;5030589;28;20406;-75
2022/08/12 05:43:20;;;;;;;14.98;8.25;;;20.20;24.40;;;;;;5030384;28;20387;-75
2022/08/12 05:45:46;;;;;;;14.98;8.23;;;20.40;23.40;;;;;;5031497;28;20551;-76
2022/08/12 05:48:12;;;;;;;20.35;9.40;;;20.40;23.30;;;;;;5030355;28;20391;-75
2022/08/12 05:50:39;;;;;;;14.38;9.25;;;20.70;23.40;;;;;;5030962;28;20395;-78
2022/08/12 05:53:05;;;;;;;14.60;8.25;;;20.90;22.80;;;;;;5031328;28;20437;-76
2022/08/12 05:55:32;;;;;;;15.47;8.00;;;20.90;23.00;;;;;;5031206;28;20403;-74
2022/08/12 05:58:00;;;;;;;20.65;9.85;;;20.80;23.70;;;;;;5029617;28;20896;-76
2022/08/12 06:00:27;;;;;;;17.48;8.30;;;20.80;23.80;;;;;;5030617;28;20392;-75
2022/08/12 06:02:55;;;;;;;28.05;11.00;;;20.80;23.90;;;;;;5031458;28;20744;-75
2022/08/12 06:05:22;;;;;;;20.45;11.80;;;21.20;22.60;;;;;;5030876;28;20820;-76
2022/08/12 06:07:48;;;;;;;16.63;8.23;;;21.50;20.50;;;;;;5029227;28;20481;-76
2022/08/12 06:10:16;;;;;;;17.43;7.90;;;21.60;19.70;;;;;;5031036;28;20399;-76
2022/08/12 06:12:42;;;;;;;19.33;8.27;;;21.80;19.30;;;;;;5030965;28;20461;-76
2022/08/12 06:15:08;;;;;;;19.60;7.60;;;21.80;19.40;;;;;;5031215;28;20903;-76
2022/08/12 06:17:34;;;;;;;13.50;7.07;;;21.70;19.00;;;;;;5031447;28;20513;-74
2022/08/12 06:19:59;;;;;;;16.48;6.80;;;21.70;18.90;;;;;;5035904;28;20696;-76
2022/08/12 06:22:25;;;;;;;18.23;6.60;;;21.90;18.20;;;;;;5035256;28;20389;-76
2022/08/12 06:24:54;;;;;;;14.05;6.40;;;22.30;17.10;;;;;;5033279;28;20391;-76
2022/08/12 06:27:20;;;;;;;12.77;5.88;;;22.30;17.10;;;;;;5034293;28;20382;-76
2022/08/12 06:29:46;;;;;;;15.23;6.15;;;22.30;16.20;;;;;;5034432;28;20389;-76
2022/08/12 06:32:12;;;;;;;14.38;7.15;;;22.40;16.20;;;;;;5033940;28;20390;-75
2022/08/12 06:34:38;;;;;;;17.73;6.28;;;22.70;15.80;;;;;;5034138;28;20402;-77
2022/08/12 06:37:04;;;;;;;11.97;5.80;;;23.00;15.60;;;;;;5034409;28;20436;-77
2022/08/12 06:39:29;;;;;;;17.27;6.88;;;23.20;15.30;;;;;;5034839;28;20411;-76
2022/08/12 06:44:39;;;;;;;16.55;6.30;;;23.00;15.60;;;;;;5034131;28;20406;-76
2022/08/12 06:47:05;;;;;;;19.33;6.28;;;23.10;15.70;;;;;;5033847;28;20387;-75
2022/08/12 06:49:35;;;;;;;20.90;6.10;;;23.20;15.70;;;;;;5034351;28;20379;-76
2022/08/12 06:52:03;;;;;;;17.35;6.28;;;23.20;15.30;;;;;;5034168;28;20461;-76
2022/08/12 06:54:29;;;;;;;11.73;6.35;;;23.30;15.20;;;;;;5033752;28;20427;-76
2022/08/12 06:56:56;;;;;;;10.30;5.70;;;23.40;15.30;;;;;;5034680;28;20474;-77
2022/08/12 06:59:21;;;;;;;20.73;6.15;;;23.60;14.60;;;;;;5033921;28;20379;-76
2022/08/12 07:01:47;;;;;;;10.60;5.40;;;23.70;14.20;;;;;;5023750;28;20453;-75
2022/08/12 07:04:14;;;;;;;12.37;5.27;;;23.90;14.50;;;;;;5034406;28;20375;-76
2022/08/12 07:06:40;;;;;;;15.38;6.00;;;24.20;14.30;;;;;;5034815;28;20382;-76
2022/08/12 07:09:06;;;;;;;17.90;5.60;;;24.20;13.20;;;;;;5033870;28;20437;-76
2022/08/12 07:11:32;;;;;;;14.70;5.03;;;24.40;12.30;;;;;;5017874;28;20495;-74
2022/08/12 07:14:03;;;;;;;8.85;5.10;;;24.50;12.50;;;;;;5019926;28;20467;-75
2022/08/12 07:19:13;;;;;;;11.20;4.80;;;24.70;11.60;;;;;;5037209;28;20448;-74
2022/08/12 07:21:39;;;;;;;7.63;4.20;;;24.90;11.00;;;;;;5022747;28;20420;-75
2022/08/12 07:24:05;;;;;;;11.37;5.30;;;24.90;11.00;;;;;;5022976;28;20449;-75
2022/08/12 07:26:30;;;;;;;12.88;5.07;;;25.10;10.90;;;;;;5034873;28;20440;-75
2022/08/12 07:28:56;;;;;;;10.90;4.97;;;25.30;10.40;;;;;;5019894;28;20877;-74
2022/08/12 07:31:22;;;;;;;6.32;3.97;;;25.40;9.30;;;;;;5042817;28;20396;-74
2022/08/12 07:33:48;;;;;;;15.97;9.20;;;25.50;8.70;;;;;;5025633;28;20420;-77
2022/08/12 07:36:14;;;;;;;18.67;11.27;;;25.50;8.90;;;;;;5047249;28;20453;-76
2022/08/12 07:38:44;;;;;;;10.55;5.18;;;25.60;8.40;;;;;;5045484;28;20395;-78
2022/08/12 07:41:16;;;;;;;8.07;5.05;;;25.80;7.40;;;;;;5022338;28;20385;-77
2022/08/12 07:43:52;;;;;;;9.23;5.00;;;25.90;7.80;;;;;;5027796;28;20403;-76
2022/08/12 07:46:21;;;;;;;7.20;5.20;;;26.00;7.40;;;;;;5026318;28;20410;-76
2022/08/12 07:48:49;;;;;;;7.43;3.80;;;26.10;7.80;;;;;;5044596;28;20413;-77
2022/08/12 07:51:16;;;;;;;7.63;3.83;;;26.20;6.70;;;;;;5047176;28;20406;-75
2022/08/12 07:53:41;;;;;;;7.05;4.28;;;26.40;6.30;;;;;;5040966;28;20407;-77
2022/08/12 07:56:09;;;;;;;15.23;4.80;;;26.50;6.60;;;;;;5045117;28;20422;-77
2022/08/12 07:58:38;;;;;;;5.28;3.70;;;26.50;5.80;;;;;;5048036;28;20387;-76
2022/08/12 08:01:09;;;;;;;7.50;5.45;;;26.50;5.20;;;;;;5043175;28;20387;-77
2022/08/12 08:03:35;;;;;;;5.57;4.35;;;26.60;5.50;;;;;;5040238;28;20403;-76
2022/08/12 08:06:02;;;;;;;8.73;4.50;;;26.70;5.30;;;;;;5045027;28;20892;-76
2022/08/12 08:08:28;;;;;;;6.27;3.80;;;26.70;5.20;;;;;;5055552;22;20409;-74
2022/08/12 08:12:52;;;;;;;7.88;3.70;;;26.80;4.80;;;;;;5050990;28;20413;-74
2022/08/12 08:13:44;;;;;;;6.72;4.72;;;26.80;4.90;;;;;;5051721;28;20955;-75
2022/08/12 08:16:14;;;;;;;4.67;4.17;;;27.00;5.10;;;;;;5050988;28;20401;-76
2022/08/12 08:18:40;;;;;;;4.50;4.10;;;27.10;5.40;;;;;;5052683;28;20387;-75
2022/08/12 08:21:05;;;;;;;7.07;3.60;;;27.20;4.50;;;;;;5052411;28;20394;-76
2022/08/12 08:26:21;;;;;;;6.22;4.18;;;27.20;4.00;;;;;;5032278;28;20390;-74
2022/08/12 08:28:46;;;;;;;5.97;3.47;;;27.20;4.40;;;;;;5032411;28;20821;-74
2022/08/12 08:31:13;;;;;;;7.50;3.63;;;27.30;4.00;;;;;;5031866;28;20427;-75
2022/08/12 08:33:40;;;;;;;7.00;4.60;;;27.40;3.80;;;;;;5032044;28;20895;-75
2022/08/12 08:36:06;;;;;;;5.50;3.78;;;27.30;4.40;;;;;;5032266;28;20414;-74
2022/08/12 08:38:31;;;;;;;6.75;4.13;;;27.40;4.00;;;;;;5032003;28;20394;-74
2022/08/12 08:43:41;;;;;;;10.55;3.90;;;27.60;3.40;;;;;;5048940;28;20432;-74
2022/08/12 08:46:07;;;;;;;8.50;3.80;;;27.70;3.10;;;;;;5032053;28;20395;-76
2022/08/12 08:48:33;;;;;;;5.00;3.80;;;27.80;3.30;;;;;;5031946;28;20399;-74
2022/08/12 08:50:59;;;;;;;5.75;3.35;;;28.00;3.20;;;;;;5047984;28;20760;-74
2022/08/12 08:53:26;;;;;;;9.40;4.05;;;28.00;2.90;;;;;;5033290;28;20398;-75
2022/08/12 08:55:53;;;;;;;5.20;3.30;;;28.10;3.10;;;;;;5032157;28;20425;-74
2022/08/12 08:58:20;;;;;;;6.43;3.17;;;28.00;2.80;;;;;;5031140;28;20387;-74
2022/08/12 09:00:48;;;;;;;3.70;3.30;;;27.90;2.50;;;;;;5031656;28;20395;-76
2022/08/12 09:03:14;;;;;;;9.60;5.65;;;28.00;2.60;;;;;;5023047;28;20419;-75
2022/08/12 09:05:39;;;;;;;7.33;4.43;;;28.20;2.10;;;;;;5051930;28;20459;-76
2022/08/12 09:08:05;;;;;;;6.33;3.23;;;28.30;2.00;;;;;;5042352;28;20733;-76
2022/08/12 09:10:32;;;;;;;4.32;3.30;;;28.30;1.40;;;;;;5032796;28;20399;-76
2022/08/12 09:15:44;;;;;;;4.75;3.22;;;28.40;1.60;;;;;;5031473;28;20854;-76
2022/08/12 09:18:10;;;;;;;4.38;3.97;;;28.60;1.10;;;;;;5029920;28;20400;-76
2022/08/12 09:20:37;;;;;;;4.83;3.90;;;28.60;1.70;;;;;;5031830;28;20382;-76
2022/08/12 09:23:08;;;;;;;5.03;3.90;;;28.70;1.00;;;;;;5029845;28;20391;-76
2022/08/12 09:25:34;;;;;;;4.88;3.40;;;28.80;1.00;;;;;;5031658;28;20445;-76
2022/08/12 09:28:01;;;;;;;5.60;4.20;;;28.90;1.00;;;;;;5031458;28;20748;-76
2022/08/12 09:30:27;;;;;;;7.83;4.70;;;29.00;1.00;;;;;;5031104;28;20383;-75
2022/08/12 09:32:53;;;;;;;5.50;3.80;;;29.00;1.00;;;;;;5030998;28;20406;-76
2022/08/12 09:35:30;;;;;;;6.93;3.47;;;29.00;1.00;;;;;;5031436;28;20887;-75
2022/08/12 09:37:56;;;;;;;3.97;3.30;;;29.10;1.00;;;;;;5031515;28;20460;-76
2022/08/12 09:40:23;;;;;;;7.40;3.25;;;29.10;1.00;;;;;;5030453;28;20391;-76
2022/08/12 09:45:47;;;;;;;8.15;3.30;;;29.40;1.00;;;;;;5015327;28;20383;-76
2022/08/12 09:48:16;;;;;;;4.00;3.30;;;29.30;1.00;;;;;;5032056;28;20707;-75
2022/08/12 09:50:51;;;;;;;5.78;3.55;;;29.20;1.00;;;;;;5029918;28;20394;-76
2022/08/12 09:53:22;;;;;;;5.80;3.10;;;29.30;1.00;;;;;;5032504;28;20379;-76
2022/08/12 09:55:51;;;;;;;6.10;3.40;;;29.40;1.00;;;;;;5034301;28;20753;-75
2022/08/12 09:58:18;;;;;;;7.57;4.50;;;29.50;1.00;;;;;;5034893;28;20459;-75
2022/08/12 10:00:46;;;;;;;4.13;3.30;;;29.60;1.00;;;;;;5036054;28;20474;-77
2022/08/12 10:03:15;;;;;;;8.85;4.50;;;29.70;1.00;;;;;;5034961;28;20454;-77
2022/08/12 10:05:43;;;;;;;10.57;3.30;;;29.70;1.00;;;;;;5034091;28;20484;-76
2022/08/12 10:08:10;;;;;;;5.60;3.85;;;29.70;1.00;;;;;;5036158;28;20414;-76
2022/08/12 10:13:40;;;;;;;6.47;3.15;;;29.80;1.00;;;;;;5035341;28;20506;-76
2022/08/12 10:13:41;;;;;;;4.10;3.20;;;29.80;1.00;;;;;;5034814;28;20391;-75
2022/08/12 10:16:17;;;;;;;9.13;4.05;;;29.80;1.00;;;;;;5036039;28;20403;-77
2022/08/12 10:18:54;;;;;;;7.72;3.90;;;29.80;1.00;;;;;;5037712;28;20417;-77
2022/08/12 10:21:25;;;;;;;6.95;3.85;;;29.90;1.00;;;;;;5036396;28;20405;-75
2022/08/12 10:23:52;;;;;;;3.80;3.50;;;30.00;1.00;;;;;;5034674;28;20429;-76
2022/08/12 10:31:50;;;;;;;5.65;3.20;;;30.10;1.00;;;;;;5035883;28;20390;-77
2022/08/12 10:34:17;;;;;;;7.32;3.70;;;30.10;1.00;;;;;;5035877;28;20406;-77
2022/08/12 10:36:43;;;;;;;7.00;3.72;;;30.10;1.00;;;;;;5054514;28;20438;-77
2022/08/12 10:39:15;;;;;;;3.67;2.85;;;30.10;1.00;;;;;;5037052;28;20387;-75
2022/08/12 10:44:36;;;;;;;8.45;3.40;;;30.10;1.00;;;;;;4994903;28;20399;-76
2022/08/12 10:47:03;;;;;;;7.57;3.88;;;30.10;1.00;;;;;;5013258;28;20385;-76
2022/08/12 10:49:36;;;;;;;5.25;3.88;;;30.10;1.00;;;;;;5014070;28;20555;-77
2022/08/12 10:52:03;;;;;;;8.05;4.78;;;30.00;1.00;;;;;;5011397;28;20429;-77
2022/08/12 10:54:28;;;;;;;8.25;3.80;;;30.10;1.00;;;;;;5016272;28;20389;-76
2022/08/12 10:56:56;;;;;;;7.65;3.10;;;30.30;1.00;;;;;;5021210;28;20419;-76
2022/08/12 10:59:23;;;;;;;15.55;7.20;;;30.30;1.00;;;;;;5034468;28;20393;-76
2022/08/12 11:01:51;;;;;;;10.73;4.00;;;30.20;1.00;;;;;;5022403;28;20480;-77
2022/08/12 11:04:17;;;;;;;9.02;3.13;;;30.10;1.00;;;;;;5022176;28;20738;-77
2022/08/12 11:06:47;;;;;;;23.55;8.98;;;30.20;1.00;;;;;;5026472;28;20484;-76
2022/08/12 11:09:31;;;;;;;3.90;3.40;;;30.20;1.00;;;;;;5045788;28;20405;-74
2022/08/12 11:12:05;;;;;;;12.38;4.93;;;30.20;1.00;;;;;;5015871;28;20982;-76
2022/08/12 11:14:32;;;;;;;5.00;3.37;;;30.20;1.00;;;;;;5016595;28;20381;-76
2022/08/12 11:17:03;;;;;;;8.20;3.50;;;30.40;1.00;;;;;;5027913;28;20412;-75
2022/08/12 11:19:31;;;;;;;12.45;5.47;;;30.70;1.00;;;;;;5017042;28;20399;-76
2022/08/12 11:21:57;;;;;;;7.15;4.43;;;30.70;1.00;;;;;;5025871;28;20384;-76
2022/08/12 11:24:24;;;;;;;11.60;4.68;;;30.70;1.00;;;;;;5032568;28;20401;-76
2022/08/12 11:26:51;;;;;;;9.65;4.40;;;30.60;1.00;;;;;;5012963;28;20404;-76
2022/08/12 11:29:22;;;;;;;12.40;4.00;;;30.60;1.00;;;;;;5031961;28;20402;-75
2022/08/12 11:31:48;;;;;;;10.77;6.75;;;30.70;1.00;;;;;;5032347;28;20884;-76
2022/08/12 11:34:15;;;;;;;13.33;5.80;;;30.70;1.00;;;;;;5031172;28;20395;-77
2022/08/12 11:36:54;;;;;;;11.20;5.87;;;30.70;1.00;;;;;;5024967;28;20404;-76
2022/08/12 11:39:21;;;;;;;5.60;3.07;;;30.70;1.00;;;;;;5015283;28;20519;-76
2022/08/12 11:41:47;;;;;;;5.82;3.70;;;30.60;1.00;;;;;;5029552;28;20754;-76
2022/08/12 11:44:13;;;;;;;8.55;4.95;;;30.60;1.00;;;;;;5032806;28;20501;-75
2022/08/12 11:46:40;;;;;;;6.60;4.53;;;30.90;1.00;;;;;;5032771;28;20445;-77
2022/08/12 11:49:06;;;;;;;15.48;7.28;;;31.00;1.00;;;;;;5032725;28;20914;-76
2022/08/12 11:51:33;;;;;;;7.93;4.68;;;31.00;1.00;;;;;;5026591;28;20405;-76
2022/08/12 11:53:58;;;;;;;7.32;4.13;;;31.00;1.00;;;;;;5026311;28;20431;-76
2022/08/12 11:56:24;;;;;;;7.43;3.90;;;31.10;1.00;;;;;;5034346;28;20455;-76
2022/08/12 11:58:50;;;;;;;5.00;3.30;;;31.20;1.00;;;;;;5034308;28;20391;-77
2022/08/12 12:01:16;;;;;;;8.30;5.10;;;31.30;1.00;;;;;;5022173;28;20392;-75
2022/08/12 12:03:41;;;;;;;11.18;3.85;;;31.30;1.00;;;;;;5019764;28;20429;-75
2022/08/12 12:06:07;;;;;;;6.10;4.50;;;31.40;1.00;;;;;;5032760;28;20399;-76
2022/08/12 12:08:33;;;;;;;8.90;4.60;;;31.50;1.00;;;;;;5032799;28;20437;-76
2022/08/12 12:10:58;;;;;;;5.70;4.50;;;31.40;1.00;;;;;;5048839;28;20462;-76
2022/08/12 12:13:24;;;;;;;6.75;3.47;;;31.50;1.00;;;;;;5033873;28;20697;-76
2022/08/12 12:15:50;;;;;;;9.97;3.40;;;31.50;1.00;;;;;;5033080;28;20407;-76
2022/08/12 12:18:24;;;;;;;5.40;3.30;;;31.40;1.00;;;;;;5050731;28;20482;-77
2022/08/12 12:20:51;;;;;;;5.10;3.20;;;31.40;1.00;;;;;;5016872;28;20404;-77
2022/08/12 12:23:17;;;;;;;11.90;5.67;;;31.30;1.00;;;;;;5015085;28;20411;-77
2022/08/12 12:25:43;;;;;;;10.48;4.20;;;31.30;1.00;;;;;;5014299;28;20392;-76
2022/08/12 12:28:09;;;;;;;7.55;3.90;;;31.40;1.00;;;;;;5013152;28;20397;-77
2022/08/12 12:30:35;;;;;;;6.60;3.95;;;31.40;1.00;;;;;;5035849;28;20402;-76
2022/08/12 12:33:02;;;;;;;8.90;3.77;;;31.40;1.00;;;;;;5019662;28;20395;-76
2022/08/12 12:35:27;;;;;;;4.70;3.47;;;31.40;1.00;;;;;;5017090;28;20405;-76
2022/08/12 12:37:55;;;;;;;7.00;4.10;;;31.50;1.00;;;;;;5021732;28;20403;-77
2022/08/12 12:40:22;;;;;;;7.55;4.75;;;31.70;1.00;;;;;;5033657;28;20411;-77
2022/08/12 12:42:48;;;;;;;5.55;3.15;;;31.60;1.00;;;;;;5029893;28;20482;-76
2022/08/12 12:45:15;;;;;;;5.20;3.90;;;31.80;1.00;;;;;;5034013;28;21132;-76
2022/08/12 12:48:01;;;;;;;3.67;2.70;;;31.90;1.00;;;;;;5030732;28;20869;-77
2022/08/12 12:50:33;;;;;;;11.30;4.70;;;31.90;1.00;;;;;;5014594;28;20393;-77
2022/08/12 12:53:00;;;;;;;8.73;4.50;;;32.00;1.00;;;;;;5032269;28;20395;-76
2022/08/12 12:55:26;;;;;;;7.05;5.20;;;32.00;1.00;;;;;;5033747;28;20407;-77
2022/08/12 12:57:52;;;;;;;5.80;3.60;;;32.00;1.00;;;;;;5036183;28;20395;-77
2022/08/12 13:00:20;;;;;;;10.70;5.50;;;32.20;1.00;;;;;;5048693;28;20927;-77
2022/08/12 13:02:51;;;;;;;8.75;4.10;;;32.20;1.00;;;;;;5053604;28;20385;-77
2022/08/12 13:05:41;;;;;;;6.72;3.60;;;32.30;1.00;;;;;;5053600;28;20945;-77
2022/08/12 13:08:24;;;;;;;7.07;3.75;;;32.30;1.00;;;;;;5054100;28;20397;-77
2022/08/12 13:10:53;;;;;;;4.55;3.17;;;32.10;1.00;;;;;;5054966;28;20385;-77
2022/08/12 13:13:21;;;;;;;7.32;4.65;;;32.00;1.00;;;;;;5053284;28;20438;-75
2022/08/12 13:15:48;;;;;;;6.35;3.80;;;32.00;1.00;;;;;;5054041;28;20399;-74
2022/08/12 13:18:16;;;;;;;3.72;3.33;;;32.20;1.00;;;;;;5021536;28;20384;-77
2022/08/12 13:20:44;;;;;;;6.38;3.90;;;32.30;1.00;;;;;;5030806;28;20458;-77
2022/08/12 13:23:10;;;;;;;8.20;4.85;;;32.30;1.00;;;;;;5032964;28;20900;-76
2022/08/12 13:25:35;;;;;;;5.85;3.90;;;32.20;1.00;;;;;;5032778;28;20455;-77
2022/08/12 13:28:02;;;;;;;4.67;3.50;;;32.30;1.00;;;;;;5036296;28;20446;-77
2022/08/12 13:30:29;;;;;;;7.20;3.40;;;32.50;1.00;;;;;;5031603;28;20399;-77
2022/08/12 13:32:57;;;;;;;11.23;4.18;;;33.00;1.00;;;;;;5033983;28;20391;-77
2022/08/12 13:35:32;;;;;;;4.50;3.80;;;33.90;1.00;;;;;;5035235;28;20406;-77
2022/08/12 13:37:59;;;;;;;6.43;2.90;;;34.70;1.00;;;;;;5038752;28;20379;-78
2022/08/12 13:40:30;;;;;;;4.25;3.03;;;34.80;1.00;;;;;;5036033;28;20955;-77
2022/08/12 13:42:56;;;;;;;3.58;2.88;;;35.00;1.00;;;;;;5033826;28;20470;-77
2022/08/12 13:45:26;;;;;;;7.57;3.88;;;35.10;1.00;;;;;;5038926;28;20517;-77
2022/08/12 13:47:56;;;;;;;3.40;2.60;;;35.50;1.00;;;;;;5036761;28;20395;-77
2022/08/12 13:50:35;;;;;;;5.18;2.50;;;35.60;1.00;;;;;;5037572;28;20450;-77
2022/08/12 13:53:09;;;;;;;3.38;2.40;;;35.70;1.00;;;;;;5036070;28;20375;-77
2022/08/12 13:55:36;;;;;;;7.80;3.60;;;35.90;1.00;;;;;;5039477;28;20502;-75
2022/08/12 13:58:04;;;;;;;5.30;3.35;;;36.10;1.00;;;;;;5054913;28;20949;-76
2022/08/12 14:00:34;;;;;;;6.45;2.80;;;36.40;1.00;;;;;;5037266;28;20390;-77
2022/08/12 14:03:01;;;;;;;6.35;3.60;;;36.60;1.00;;;;;;5040112;28;20394;-77
2022/08/12 14:05:27;;;;;;;4.60;2.80;;;36.90;1.00;;;;;;5036264;28;20395;-75
2022/08/12 14:08:02;;;;;;;6.30;3.45;;;37.10;1.00;;;;;;5035461;28;20387;-77
2022/08/12 14:10:35;;;;;;;4.15;2.80;;;37.00;1.00;;;;;;5032958;28;20505;-76
2022/08/12 14:13:07;;;;;;;4.78;2.90;;;37.70;1.00;;;;;;5033327;28;20486;-76
2022/08/12 14:15:39;;;;;;;2.50;2.40;;;37.90;1.00;;;;;;5032852;28;20752;-77
2022/08/12 14:18:13;;;;;;;4.45;2.67;;;38.00;1.00;;;;;;5033508;28;20864;-77
2022/08/12 14:20:40;;;;;;;2.75;2.10;;;38.30;1.00;;;;;;5034993;28;20409;-77
2022/08/12 14:23:07;;;;;;;6.40;2.57;;;38.50;1.00;;;;;;5036031;28;20386;-77
2022/08/12 14:25:33;;;;;;;3.92;2.40;;;37.70;1.00;;;;;;5032675;28;20883;-76
2022/08/12 14:28:10;;;;;;;4.65;2.58;;;37.70;1.00;;;;;;5033990;28;20391;-76
2022/08/12 14:30:41;;;;;;;7.25;3.78;;;38.00;1.00;;;;;;5032657;28;20387;-77
2022/08/12 14:33:06;;;;;;;5.50;2.40;;;38.30;1.00;;;;;;5032465;28;20386;-76
2022/08/12 14:35:32;;;;;;;4.97;3.40;;;38.40;1.00;;;;;;5032343;28;20475;-75
2022/08/12 14:37:58;;;;;;;4.13;2.80;;;38.40;1.00;;;;;;5032307;28;20733;-77
2022/08/12 14:40:23;;;;;;;2.80;2.60;;;38.60;1.00;;;;;;5035056;28;20509;-77
2022/08/12 14:42:49;;;;;;;3.13;2.83;;;38.60;1.00;;;;;;5037932;28;20383;-77